Time;durP1;ratioP1;P1;durP2;ratioP2;P2;SDS_P1;SDS_P2;PMS_P1;PMS_P2;Temp;Humidity;BMP_temperature;BMP_pressure;BME280_temperature;BME280_humidity;BME280_pressure;Samples;Min_cycle;Max_cycle;Signal;HPM_P1;HPM_P2
2022/03/25 00:00:12;;;;;;;13.05;11.80;;;17.30;41.10;;;;;;5053247;28;20102;-74
2022/03/25 00:02:39;;;;;;;13.68;12.38;;;17.30;41.10;;;;;;5053461;28;20396;-75
2022/03/25 00:05:05;;;;;;;13.23;11.93;;;17.30;41.20;;;;;;5053140;28;20033;-75
2022/03/25 00:07:32;;;;;;;13.45;11.77;;;17.30;41.20;;;;;;5053455;28;20049;-69
2022/03/25 00:09:58;;;;;;;13.57;12.18;;;17.30;41.30;;;;;;5054489;28;20476;-74
2022/03/25 00:12:24;;;;;;;15.00;13.40;;;17.30;41.30;;;;;;5053372;28;20052;-74
2022/03/25 00:14:49;;;;;;;12.25;11.00;;;17.30;41.30;;;;;;5053379;28;20039;-68
2022/03/25 00:17:16;;;;;;;13.63;12.23;;;17.30;41.30;;;;;;5052730;28;20036;-73
2022/03/25 00:19:41;;;;;;;12.60;11.40;;;17.30;41.40;;;;;;5052959;28;20048;-74
2022/03/25 00:22:08;;;;;;;11.85;10.65;;;17.20;41.40;;;;;;5053200;28;20037;-73
2022/03/25 00:24:33;;;;;;;13.82;11.43;;;17.20;41.40;;;;;;5053063;28;20488;-73
2022/03/25 00:27:02;;;;;;;12.40;11.05;;;17.20;41.40;;;;;;5052788;28;20041;-73
2022/03/25 00:29:27;;;;;;;12.18;10.98;;;17.20;41.50;;;;;;5053140;28;20048;-74
2022/03/25 00:31:55;;;;;;;13.40;12.00;;;17.20;41.60;;;;;;5052637;28;20444;-74
2022/03/25 00:34:21;;;;;;;13.27;11.57;;;17.10;41.50;;;;;;5053367;28;20056;-71
2022/03/25 00:36:46;;;;;;;13.18;11.80;;;17.20;41.60;;;;;;5052572;28;20045;-71
2022/03/25 00:39:12;;;;;;;12.50;11.20;;;17.20;41.60;;;;;;5052615;28;20083;-75
2022/03/25 00:41:38;;;;;;;12.52;11.23;;;17.10;41.60;;;;;;5036250;28;20119;-75
2022/03/25 00:44:06;;;;;;;12.80;11.57;;;17.10;41.60;;;;;;5052481;28;20120;-72
2022/03/25 00:46:33;;;;;;;12.90;11.63;;;17.10;41.60;;;;;;5053476;28;20504;-74
2022/03/25 00:48:59;;;;;;;13.43;12.07;;;17.10;41.70;;;;;;5052076;28;20053;-74
2022/03/25 00:51:25;;;;;;;13.05;11.57;;;17.10;41.70;;;;;;5052310;28;20048;-72
2022/03/25 00:53:51;;;;;;;13.80;12.40;;;17.10;41.70;;;;;;5052566;28;20120;-74
2022/03/25 00:56:17;;;;;;;13.25;11.82;;;17.00;41.60;;;;;;5052534;28;20430;-69
2022/03/25 00:58:42;;;;;;;13.93;12.52;;;17.00;41.60;;;;;;5052171;28;20037;-74
2022/03/25 01:01:08;;;;;;;13.38;12.05;;;17.00;41.70;;;;;;5052533;28;20037;-75
2022/03/25 01:03:35;;;;;;;14.15;12.82;;;17.00;41.60;;;;;;5052055;28;20041;-73
2022/03/25 01:06:01;;;;;;;13.52;12.32;;;17.00;41.60;;;;;;5052028;28;20480;-69
2022/03/25 01:08:27;;;;;;;13.75;12.23;;;17.00;41.70;;;;;;5051989;28;20039;-74
2022/03/25 01:10:54;;;;;;;13.07;11.77;;;17.00;41.70;;;;;;5052031;28;20087;-69
2022/03/25 01:13:19;;;;;;;15.30;12.68;;;16.90;41.70;;;;;;5052191;28;20033;-69
2022/03/25 01:15:45;;;;;;;12.27;11.10;;;16.90;41.70;;;;;;5051841;28;20381;-74
2022/03/25 01:18:11;;;;;;;13.32;12.05;;;16.90;41.70;;;;;;5051981;28;20040;-74
2022/03/25 01:20:36;;;;;;;13.38;12.07;;;16.90;41.80;;;;;;5051860;28;20396;-74
2022/03/25 01:23:02;;;;;;;12.05;10.80;;;16.90;41.80;;;;;;5051708;28;20048;-68
2022/03/25 01:25:28;;;;;;;12.75;11.55;;;16.90;41.90;;;;;;5051777;28;20128;-73
2022/03/25 01:27:54;;;;;;;11.57;10.38;;;16.90;41.90;;;;;;5052377;28;20535;-74
2022/03/25 01:30:20;;;;;;;11.80;10.60;;;16.90;41.90;;;;;;5051624;28;20125;-69
2022/03/25 01:32:45;;;;;;;11.68;10.43;;;16.90;42.00;;;;;;5051510;28;20557;-72
2022/03/25 01:35:12;;;;;;;13.00;10.85;;;16.80;42.00;;;;;;5052768;28;20075;-73
2022/03/25 01:37:38;;;;;;;11.73;10.52;;;16.80;42.00;;;;;;5051801;28;20037;-73
2022/03/25 01:40:09;;;;;;;11.75;10.55;;;16.80;42.10;;;;;;5051724;28;20139;-74
2022/03/25 01:42:39;;;;;;;12.82;11.63;;;16.80;42.10;;;;;;5051397;28;20130;-73
2022/03/25 01:45:06;;;;;;;13.90;12.50;;;16.80;42.10;;;;;;5051267;28;20075;-73
2022/03/25 01:47:32;;;;;;;12.15;10.88;;;16.80;42.10;;;;;;5051536;28;20488;-73
2022/03/25 01:50:00;;;;;;;13.02;11.38;;;16.80;42.10;;;;;;5051499;28;20069;-78
2022/03/25 01:52:28;;;;;;;13.70;12.30;;;16.80;42.10;;;;;;5051920;28;20041;-68
2022/03/25 01:54:54;;;;;;;13.40;12.00;;;16.80;42.20;;;;;;5051114;28;20045;-73
2022/03/25 01:57:24;;;;;;;12.55;11.30;;;16.70;42.10;;;;;;5051444;28;20436;-69
2022/03/25 01:59:50;;;;;;;12.02;10.85;;;16.70;42.20;;;;;;5051350;28;20354;-68
2022/03/25 02:02:15;;;;;;;12.20;11.05;;;16.70;42.20;;;;;;5051271;28;20040;-67
2022/03/25 02:04:42;;;;;;;13.40;12.10;;;16.70;42.20;;;;;;5050963;28;20459;-72
2022/03/25 02:07:09;;;;;;;13.00;11.63;;;16.70;42.30;;;;;;5051254;28;20384;-71
2022/03/25 02:09:35;;;;;;;13.35;11.93;;;16.70;42.20;;;;;;5052149;28;20041;-72
2022/03/25 02:12:01;;;;;;;13.25;11.77;;;16.70;42.30;;;;;;5050918;28;20041;-72
2022/03/25 02:14:27;;;;;;;12.48;11.27;;;16.70;42.30;;;;;;5050844;28;20072;-70
2022/03/25 02:16:53;;;;;;;11.23;10.18;;;16.60;42.30;;;;;;5050740;28;20044;-73
2022/03/25 02:19:19;;;;;;;13.05;11.70;;;16.60;42.30;;;;;;5050761;28;20052;-71
2022/03/25 02:21:47;;;;;;;11.90;10.73;;;16.60;42.30;;;;;;5050694;28;20039;-72
2022/03/25 02:24:13;;;;;;;12.90;11.60;;;16.60;42.30;;;;;;5051861;28;20041;-71
2022/03/25 02:26:39;;;;;;;14.52;12.93;;;16.60;42.30;;;;;;5051996;28;20073;-72
2022/03/25 02:29:07;;;;;;;11.98;10.85;;;16.60;42.30;;;;;;5050956;28;20358;-68
2022/03/25 02:31:33;;;;;;;13.25;11.90;;;16.60;42.40;;;;;;5050759;28;20037;-73
2022/03/25 02:34:03;;;;;;;13.43;11.98;;;16.60;42.30;;;;;;5050603;28;20071;-71
2022/03/25 02:36:29;;;;;;;12.30;11.00;;;16.60;42.40;;;;;;5050513;28;20501;-72
2022/03/25 02:38:55;;;;;;;12.02;10.93;;;16.50;42.30;;;;;;5050548;28;20124;-67
2022/03/25 02:41:23;;;;;;;11.43;10.30;;;16.60;42.40;;;;;;5050244;28;20135;-72
2022/03/25 02:43:49;;;;;;;10.15;9.02;;;16.60;42.30;;;;;;5050623;28;20056;-72
2022/03/25 02:46:15;;;;;;;9.88;8.88;;;16.70;42.30;;;;;;5050392;28;20481;-72
2022/03/25 02:48:40;;;;;;;9.73;8.73;;;16.90;42.20;;;;;;5050098;28;20056;-72
2022/03/25 02:51:06;;;;;;;9.55;8.60;;;17.10;42.00;;;;;;5050972;28;20053;-71
2022/03/25 02:53:32;;;;;;;8.48;7.65;;;17.30;41.60;;;;;;5050344;28;20159;-70
2022/03/25 02:55:57;;;;;;;8.10;6.95;;;17.70;41.20;;;;;;5050354;28;20037;-72
2022/03/25 02:58:23;;;;;;;8.63;7.72;;;18.00;40.70;;;;;;5050694;28;20037;-71
2022/03/25 03:00:49;;;;;;;7.88;7.18;;;18.30;40.30;;;;;;5050549;28;20569;-71
2022/03/25 03:03:14;;;;;;;7.63;6.82;;;18.60;39.90;;;;;;5050455;28;20534;-68
2022/03/25 03:05:40;;;;;;;9.07;7.93;;;18.80;39.40;;;;;;5051491;28;20481;-72
2022/03/25 03:08:06;;;;;;;7.70;6.93;;;19.10;39.80;;;;;;5051516;28;20076;-72
2022/03/25 03:10:32;;;;;;;7.68;6.97;;;19.30;38.70;;;;;;5050553;28;20037;-72
2022/03/25 03:13:02;;;;;;;8.38;7.57;;;19.40;38.30;;;;;;5050444;28;20037;-72
2022/03/25 03:15:28;;;;;;;7.47;6.78;;;19.70;38.00;;;;;;5050232;28;20083;-72
2022/03/25 03:17:54;;;;;;;8.68;7.80;;;19.80;37.70;;;;;;5050008;28;20049;-67
2022/03/25 03:20:20;;;;;;;7.57;6.93;;;19.90;37.40;;;;;;5050137;28;20037;-66
2022/03/25 03:22:47;;;;;;;7.88;7.10;;;20.10;37.30;;;;;;5050104;28;20056;-72
2022/03/25 03:25:13;;;;;;;7.40;6.70;;;20.20;37.00;;;;;;5050139;28;20102;-74
2022/03/25 03:27:39;;;;;;;7.30;6.60;;;20.30;36.70;;;;;;5049995;28;20041;-67
2022/03/25 03:30:10;;;;;;;7.97;6.88;;;20.50;36.50;;;;;;5050269;28;20087;-73
2022/03/25 03:32:36;;;;;;;7.93;7.22;;;20.60;36.30;;;;;;5050209;28;20041;-72
2022/03/25 03:35:03;;;;;;;7.13;6.53;;;20.70;36.10;;;;;;5051371;28;20492;-71
2022/03/25 03:37:29;;;;;;;8.48;6.93;;;20.80;35.90;;;;;;5049881;28;20079;-72
2022/03/25 03:39:55;;;;;;;7.40;6.70;;;20.80;35.70;;;;;;5050233;28;20080;-73
2022/03/25 03:42:20;;;;;;;7.30;6.60;;;21.00;35.60;;;;;;5033303;28;20044;-72
2022/03/25 03:44:46;;;;;;;6.88;6.18;;;21.10;35.50;;;;;;5049855;28;20106;-67
2022/03/25 03:47:12;;;;;;;6.63;6.03;;;21.20;35.30;;;;;;5050051;28;20041;-70
2022/03/25 03:49:39;;;;;;;7.10;6.18;;;21.30;35.10;;;;;;5049793;28;20048;-67
2022/03/25 03:52:05;;;;;;;6.72;6.10;;;21.50;34.90;;;;;;5051250;28;20473;-67
2022/03/25 03:54:32;;;;;;;6.18;5.65;;;21.60;34.60;;;;;;5053699;28;20399;-72
2022/03/25 03:56:59;;;;;;;6.85;6.28;;;21.70;34.30;;;;;;5053145;28;20388;-66
2022/03/25 03:59:25;;;;;;;6.57;5.97;;;21.90;34.10;;;;;;5054690;28;20064;-68
2022/03/25 04:01:53;;;;;;;5.93;5.43;;;22.10;33.90;;;;;;5053331;28;20087;-72
2022/03/25 04:04:19;;;;;;;7.40;6.70;;;22.20;33.60;;;;;;5053371;28;20037;-70
2022/03/25 04:06:44;;;;;;;6.18;5.68;;;22.40;33.50;;;;;;5053582;28;20045;-73
2022/03/25 04:09:10;;;;;;;6.53;5.93;;;22.50;33.30;;;;;;5054585;28;20041;-66
2022/03/25 04:11:36;;;;;;;6.30;5.80;;;22.50;33.00;;;;;;5053444;28;20029;-66
2022/03/25 04:14:02;;;;;;;6.55;5.95;;;22.70;32.90;;;;;;5053363;28;20037;-72
2022/03/25 04:16:30;;;;;;;6.22;5.72;;;22.90;32.70;;;;;;5054354;28;20400;-68
2022/03/25 04:18:57;;;;;;;6.00;5.45;;;22.90;32.50;;;;;;5052972;28;20128;-67
2022/03/25 04:21:23;;;;;;;5.70;5.20;;;23.00;32.20;;;;;;5052953;28;20044;-72
2022/03/25 04:23:48;;;;;;;5.25;4.85;;;23.20;32.20;;;;;;5054181;28;20040;-72
2022/03/25 04:26:15;;;;;;;5.38;4.97;;;23.20;32.00;;;;;;5053133;28;20544;-72
2022/03/25 04:28:40;;;;;;;5.53;5.03;;;23.30;32.00;;;;;;5054132;28;20041;-73
2022/03/25 04:31:06;;;;;;;5.00;4.60;;;23.30;31.80;;;;;;5052860;28;20153;-72
2022/03/25 04:33:34;;;;;;;5.47;5.07;;;23.40;31.80;;;;;;5052881;28;20025;-71
2022/03/25 04:36:01;;;;;;;5.60;5.15;;;23.40;31.70;;;;;;5052773;28;20044;-72
2022/03/25 04:38:28;;;;;;;4.80;4.50;;;23.40;31.70;;;;;;5053407;28;20116;-67
2022/03/25 04:40:54;;;;;;;5.47;5.00;;;23.30;31.70;;;;;;5054680;28;20041;-71
2022/03/25 04:43:20;;;;;;;4.75;4.35;;;23.30;31.80;;;;;;5053215;28;20051;-74
2022/03/25 04:45:46;;;;;;;4.75;4.35;;;23.20;31.90;;;;;;5054294;28;20033;-69
2022/03/25 04:48:12;;;;;;;4.60;4.20;;;23.10;31.90;;;;;;5055476;28;20045;-73
2022/03/25 04:50:38;;;;;;;5.05;4.65;;;23.10;32.00;;;;;;5055981;28;20090;-71
2022/03/25 04:53:05;;;;;;;4.68;4.38;;;23.00;32.10;;;;;;5073659;28;20114;-72
2022/03/25 04:55:31;;;;;;;4.05;3.75;;;22.90;32.20;;;;;;5055832;28;20127;-72
2022/03/25 04:57:56;;;;;;;4.00;3.70;;;22.90;32.20;;;;;;5055563;28;20091;-67
2022/03/25 05:00:26;;;;;;;4.05;3.75;;;22.90;32.30;;;;;;5055795;28;20048;-72
2022/03/25 05:02:52;;;;;;;3.78;3.47;;;22.90;32.20;;;;;;5055770;28;20045;-72
2022/03/25 05:05:17;;;;;;;4.40;4.00;;;22.90;32.30;;;;;;5073495;28;20055;-72
2022/03/25 05:07:45;;;;;;;4.20;3.90;;;22.90;32.20;;;;;;5073584;28;20029;-71
2022/03/25 05:10:12;;;;;;;3.85;3.55;;;23.00;32.20;;;;;;5073241;28;20480;-72
2022/03/25 05:12:39;;;;;;;3.70;3.40;;;23.00;32.10;;;;;;5055619;28;20044;-67
2022/03/25 05:15:05;;;;;;;3.95;3.65;;;23.00;32.10;;;;;;5073203;28;20036;-72
2022/03/25 05:17:31;;;;;;;3.92;3.60;;;23.00;32.10;;;;;;5055406;28;20492;-72
2022/03/25 05:19:57;;;;;;;4.30;4.00;;;23.10;32.00;;;;;;5055226;28;20040;-71
2022/03/25 05:22:23;;;;;;;4.30;3.95;;;23.10;32.00;;;;;;5055291;28;20082;-67
2022/03/25 05:24:48;;;;;;;4.35;3.95;;;23.10;32.00;;;;;;5055097;28;20408;-67
2022/03/25 05:27:14;;;;;;;3.80;3.50;;;23.10;31.90;;;;;;5072964;28;20060;-72
2022/03/25 05:29:40;;;;;;;3.33;3.10;;;23.10;31.90;;;;;;5073069;28;20468;-72
2022/03/25 05:32:10;;;;;;;3.95;3.65;;;23.10;31.90;;;;;;5055143;28;20461;-67
2022/03/25 05:34:35;;;;;;;4.28;3.97;;;23.00;31.90;;;;;;5055223;28;20036;-72
2022/03/25 05:37:01;;;;;;;3.78;3.47;;;23.00;32.00;;;;;;5054986;28;20434;-67
2022/03/25 05:39:27;;;;;;;4.20;3.90;;;22.90;32.00;;;;;;5055007;28;20457;-67
2022/03/25 05:41:52;;;;;;;3.90;3.60;;;23.00;32.00;;;;;;5038101;28;20450;-72
2022/03/25 05:44:18;;;;;;;3.90;3.60;;;22.90;32.10;;;;;;5072647;28;20056;-72
2022/03/25 05:46:44;;;;;;;3.45;3.17;;;22.90;32.00;;;;;;5072693;28;20035;-69
2022/03/25 05:49:10;;;;;;;3.92;3.63;;;22.90;32.10;;;;;;5052361;28;20045;-67
2022/03/25 05:51:35;;;;;;;3.33;2.97;;;22.80;32.00;;;;;;5054518;28;20391;-72
2022/03/25 05:54:01;;;;;;;3.85;3.55;;;22.80;32.10;;;;;;5054528;28;20123;-67
2022/03/25 05:56:27;;;;;;;3.63;3.33;;;22.80;32.10;;;;;;5054505;28;20068;-72
2022/03/25 05:58:53;;;;;;;3.58;3.38;;;22.80;32.20;;;;;;5072348;28;20039;-67
2022/03/25 06:01:19;;;;;;;4.43;4.07;;;22.80;32.50;;;;;;5037799;28;20499;-67
2022/03/25 06:03:44;;;;;;;3.88;3.58;;;22.70;32.10;;;;;;5054366;28;20079;-71
2022/03/25 06:06:14;;;;;;;3.65;3.35;;;22.70;32.20;;;;;;5054291;28;20105;-67
2022/03/25 06:08:39;;;;;;;3.38;3.17;;;22.70;32.10;;;;;;5054274;28;20040;-70
2022/03/25 06:11:05;;;;;;;3.63;3.33;;;22.70;32.10;;;;;;5054253;28;20040;-72
2022/03/25 06:13:31;;;;;;;3.88;3.47;;;22.70;32.10;;;;;;5054244;28;20036;-73
2022/03/25 06:15:56;;;;;;;5.88;4.15;;;22.80;32.20;;;;;;5070621;28;20117;-68
2022/03/25 06:18:23;;;;;;;11.30;4.25;;;22.70;32.30;;;;;;5054313;28;20036;-70
2022/03/25 06:20:49;;;;;;;5.18;4.57;;;22.70;32.50;;;;;;5053392;28;20036;-68
2022/03/25 06:23:15;;;;;;;4.28;3.88;;;22.60;32.60;;;;;;5053543;28;20123;-69
2022/03/25 06:25:42;;;;;;;4.32;4.03;;;22.70;32.70;;;;;;5053064;28;20044;-69
2022/03/25 06:28:08;;;;;;;3.47;3.25;;;22.60;32.60;;;;;;5052503;28;20032;-69
2022/03/25 06:30:36;;;;;;;8.05;7.35;;;22.60;32.60;;;;;;5052820;28;20043;-69
2022/03/25 06:33:04;;;;;;;9.05;8.32;;;22.60;32.50;;;;;;5053329;28;20039;-69
2022/03/25 06:35:30;;;;;;;5.82;5.43;;;22.60;32.10;;;;;;5053841;28;20102;-68
2022/03/25 06:37:56;;;;;;;6.15;4.68;;;22.60;32.10;;;;;;5056934;28;20592;-69
2022/03/25 06:40:23;;;;;;;4.03;3.72;;;22.60;32.10;;;;;;5071000;28;20483;-69
2022/03/25 06:42:52;;;;;;;4.55;4.07;;;22.70;32.30;;;;;;5071333;28;20052;-69
2022/03/25 06:45:18;;;;;;;14.95;13.50;;;22.80;32.20;;;;;;5070782;28;20673;-64
2022/03/25 06:47:44;;;;;;;16.05;14.55;;;22.80;31.60;;;;;;5054449;28;20053;-68
2022/03/25 06:50:13;;;;;;;16.52;14.95;;;22.70;30.90;;;;;;5048486;28;20094;-69
2022/03/25 06:52:40;;;;;;;17.05;15.55;;;22.60;30.60;;;;;;5050104;28;20065;-69
2022/03/25 06:55:06;;;;;;;16.48;15.07;;;22.40;30.40;;;;;;5050996;28;20037;-70
2022/03/25 06:57:32;;;;;;;17.58;15.90;;;22.30;30.50;;;;;;5049145;28;20041;-69
2022/03/25 06:59:58;;;;;;;16.98;15.48;;;22.00;30.60;;;;;;5048950;28;20041;-63
2022/03/25 07:02:24;;;;;;;18.75;17.05;;;21.90;30.70;;;;;;5046816;28;20032;-64
2022/03/25 07:04:50;;;;;;;20.23;18.20;;;21.70;30.70;;;;;;5044978;28;20037;-71
2022/03/25 07:07:21;;;;;;;20.15;18.23;;;21.60;30.90;;;;;;5044782;28;20033;-69
2022/03/25 07:09:47;;;;;;;19.00;17.13;;;21.40;31.00;;;;;;5043738;28;20032;-70
2022/03/25 07:12:15;;;;;;;17.88;16.17;;;21.30;31.40;;;;;;5041740;28;20060;-64
2022/03/25 07:14:40;;;;;;;18.98;17.25;;;21.10;31.70;;;;;;5039549;28;20467;-70
2022/03/25 07:17:06;;;;;;;18.83;17.00;;;21.00;32.00;;;;;;5037952;28;20048;-65
2022/03/25 07:19:31;;;;;;;20.27;18.23;;;20.90;32.20;;;;;;5031787;28;20047;-69
2022/03/25 07:21:57;;;;;;;20.20;18.23;;;20.80;32.50;;;;;;5034819;28;20037;-69
2022/03/25 07:24:23;;;;;;;19.23;17.30;;;20.60;32.80;;;;;;5033657;28;20075;-69
2022/03/25 07:26:48;;;;;;;20.80;18.73;;;20.60;33.10;;;;;;5033773;28;20041;-68
2022/03/25 07:29:14;;;;;;;18.63;16.67;;;20.40;33.30;;;;;;5034717;28;20041;-68
2022/03/25 07:31:40;;;;;;;18.40;16.50;;;20.40;33.70;;;;;;5033888;28;20053;-69
2022/03/25 07:34:06;;;;;;;18.55;16.55;;;20.20;34.00;;;;;;5034911;28;20474;-67
2022/03/25 07:36:33;;;;;;;17.15;15.35;;;20.20;34.40;;;;;;5023853;28;20061;-68
2022/03/25 07:38:58;;;;;;;18.65;16.25;;;20.20;34.60;;;;;;5028415;28;20044;-69
2022/03/25 07:41:24;;;;;;;20.35;16.23;;;20.30;34.70;;;;;;5035573;28;20127;-68
2022/03/25 07:43:52;;;;;;;20.73;15.48;;;20.20;35.00;;;;;;5031202;28;20543;-67
2022/03/25 07:46:18;;;;;;;17.38;14.48;;;20.10;35.60;;;;;;5030961;28;20189;-73
2022/03/25 07:48:43;;;;;;;21.33;14.80;;;20.00;35.80;;;;;;5034875;28;20043;-73
2022/03/25 07:51:09;;;;;;;21.25;18.65;;;19.90;36.10;;;;;;5032675;28;20041;-73
2022/03/25 07:53:35;;;;;;;20.55;18.20;;;19.80;36.20;;;;;;5031198;28;20041;-73
2022/03/25 07:56:01;;;;;;;23.65;21.00;;;19.70;36.30;;;;;;5041010;28;20081;-72
2022/03/25 07:58:27;;;;;;;23.17;20.65;;;19.70;36.50;;;;;;5038183;28;20086;-72
2022/03/25 08:00:53;;;;;;;21.05;18.77;;;19.60;36.50;;;;;;5034190;28;20049;-66
2022/03/25 08:03:19;;;;;;;22.77;20.38;;;19.50;36.60;;;;;;5039527;28;20516;-73
2022/03/25 08:05:48;;;;;;;20.73;18.63;;;19.40;36.80;;;;;;5034990;28;20042;-73
2022/03/25 08:08:16;;;;;;;19.38;17.52;;;19.40;37.00;;;;;;5036521;28;20040;-72
2022/03/25 08:10:42;;;;;;;19.23;17.23;;;19.40;37.10;;;;;;5037775;28;20137;-66
2022/03/25 08:13:09;;;;;;;20.10;18.05;;;19.30;37.20;;;;;;5033251;28;20638;-66
2022/03/25 08:15:35;;;;;;;19.52;17.48;;;19.20;37.30;;;;;;5048404;28;20115;-73
2022/03/25 08:20:43;;;;;;;18.10;16.15;;;19.20;37.50;;;;;;5041685;28;20411;-66
2022/03/25 08:23:12;;;;;;;19.08;15.45;;;19.20;38.20;;;;;;5032908;28;20046;-70
2022/03/25 08:28:25;;;;;;;24.05;17.15;;;19.10;38.70;;;;;;5033933;28;20099;-71
2022/03/25 08:30:51;;;;;;;23.52;19.95;;;19.00;39.00;;;;;;5031214;28;20041;-71
2022/03/25 08:33:18;;;;;;;20.90;18.23;;;19.10;39.30;;;;;;5029068;28;20052;-72
2022/03/25 08:35:44;;;;;;;20.70;17.75;;;19.00;39.30;;;;;;5035858;28;20052;-68
2022/03/25 08:38:14;;;;;;;20.27;16.02;;;19.00;39.30;;;;;;5035645;28;20426;-70
2022/03/25 08:40:40;;;;;;;18.90;16.90;;;19.00;39.40;;;;;;5034448;28;20645;-74
2022/03/25 08:43:07;;;;;;;22.20;18.17;;;19.00;39.40;;;;;;5032191;28;20439;-72
2022/03/25 08:45:34;;;;;;;21.63;18.48;;;18.90;39.30;;;;;;5031357;28;20110;-71
2022/03/25 08:48:00;;;;;;;19.45;17.38;;;19.00;39.50;;;;;;5030619;28;20154;-71
2022/03/25 08:50:26;;;;;;;17.45;15.55;;;18.90;39.60;;;;;;5032676;28;20042;-68
2022/03/25 08:52:53;;;;;;;21.08;18.15;;;19.00;39.70;;;;;;5031453;28;20140;-71
2022/03/25 08:55:20;;;;;;;20.30;17.77;;;18.90;39.70;;;;;;5062971;28;20045;-71
2022/03/25 08:57:48;;;;;;;22.10;16.88;;;18.90;39.90;;;;;;5030995;28;20056;-72
2022/03/25 09:00:16;;;;;;;21.60;17.33;;;18.90;40.00;;;;;;5031924;28;20041;-70
2022/03/25 09:02:43;;;;;;;19.08;16.80;;;18.90;40.20;;;;;;5034799;28;20048;-69
2022/03/25 09:05:13;;;;;;;22.27;17.85;;;18.90;40.40;;;;;;5030530;28;20041;-69
2022/03/25 09:07:42;;;;;;;23.17;17.48;;;18.90;40.60;;;;;;5031072;28;20120;-72
2022/03/25 09:10:11;;;;;;;18.30;16.30;;;18.90;40.90;;;;;;5065825;28;20120;-71
2022/03/25 09:12:37;;;;;;;18.70;16.73;;;19.00;40.90;;;;;;5029425;28;20296;-70
2022/03/25 09:15:05;;;;;;;19.42;17.23;;;19.00;41.10;;;;;;5034636;28;20041;-70
2022/03/25 09:17:34;;;;;;;21.33;16.50;;;19.00;41.20;;;;;;5033471;28;20110;-70
2022/03/25 09:20:00;;;;;;;18.73;16.73;;;19.10;41.30;;;;;;5031029;28;20060;-69
2022/03/25 09:22:26;;;;;;;21.25;15.93;;;19.10;41.30;;;;;;5030243;28;20057;-71
2022/03/25 09:24:51;;;;;;;20.65;16.65;;;19.10;41.40;;;;;;5033536;28;20187;-71
2022/03/25 09:27:17;;;;;;;17.75;15.90;;;19.20;41.40;;;;;;5030402;28;20033;-70
2022/03/25 09:29:44;;;;;;;16.83;15.02;;;19.20;41.30;;;;;;5032776;28;20279;-69
2022/03/25 09:32:10;;;;;;;16.15;14.40;;;19.20;41.10;;;;;;5050833;28;20037;-73
2022/03/25 09:37:22;;;;;;;21.98;14.88;;;19.20;41.10;;;;;;5022532;28;20056;-67
2022/03/25 09:39:48;;;;;;;19.42;14.80;;;19.20;41.00;;;;;;5021456;28;20042;-68
2022/03/25 09:42:15;;;;;;;20.75;15.93;;;19.20;41.20;;;;;;5000695;28;20124;-67
2022/03/25 09:44:42;;;;;;;20.20;16.08;;;19.20;41.10;;;;;;5020528;28;20049;-69
2022/03/25 09:47:10;;;;;;;22.67;17.27;;;19.20;41.10;;;;;;5046760;28;20038;-68
2022/03/25 09:49:38;;;;;;;21.08;17.08;;;19.20;41.00;;;;;;5016897;28;20055;-69
2022/03/25 09:52:05;;;;;;;20.23;15.85;;;19.30;41.00;;;;;;5018516;28;20053;-68
2022/03/25 09:54:31;;;;;;;23.92;17.80;;;19.30;40.90;;;;;;5015880;28;20045;-69
2022/03/25 09:56:57;;;;;;;26.70;18.38;;;19.30;40.60;;;;;;5017613;28;20406;-69
2022/03/25 09:59:23;;;;;;;25.35;19.65;;;19.40;40.40;;;;;;5017737;28;20044;-69
2022/03/25 10:01:49;;;;;;;24.25;18.00;;;19.40;40.10;;;;;;5019458;28;20097;-71
2022/03/25 10:04:36;;;;;;;21.77;16.55;;;19.40;40.00;;;;;;5015719;28;20049;-69
2022/03/25 10:07:25;;;;;;;18.70;15.73;;;19.50;40.00;;;;;;5018289;28;20052;-70
2022/03/25 10:10:13;;;;;;;19.65;16.05;;;19.50;39.70;;;;;;5017792;28;20041;-70
2022/03/25 10:12:41;;;;;;;18.33;15.23;;;19.60;39.60;;;;;;5014382;28;20328;-71
2022/03/25 10:25:55;;;;;;;19.17;14.10;;;19.70;39.50;;;;;;5099064;27;20432;-73
2022/03/25 10:28:40;;;;;;;16.85;12.68;;;19.80;39.00;;;;;;5104636;27;20048;-73
2022/03/25 10:31:11;;;;;;;14.50;11.98;;;19.80;38.90;;;;;;5099295;28;20047;-71
2022/03/25 10:36:27;;;;;;;14.70;10.65;;;19.90;38.60;;;;;;5121421;27;1158955;-70
2022/03/25 10:41:38;;;;;;;13.35;10.00;;;20.00;38.50;;;;;;5091589;27;20483;-70
2022/03/25 10:44:05;;;;;;;10.98;9.75;;;20.10;38.60;;;;;;5091336;28;20572;-71
2022/03/25 10:49:17;;;;;;;12.82;10.02;;;20.20;38.70;;;;;;5092760;27;20513;-68
2022/03/25 10:51:51;;;;;;;27.15;18.75;;;20.30;38.80;;;;;;5095770;28;20061;-70
2022/03/25 10:54:16;;;;;;;27.58;20.42;;;20.40;38.20;;;;;;5080006;28;20570;-70
2022/03/25 10:59:30;;;;;;;27.02;18.95;;;20.30;37.50;;;;;;5115740;27;1177296;-70
2022/03/25 11:01:58;;;;;;;23.98;18.42;;;20.30;37.10;;;;;;5136350;27;20117;-70
2022/03/25 11:04:26;;;;;;;31.30;19.98;;;20.30;37.10;;;;;;5141680;27;20031;-70
2022/03/25 11:06:53;;;;;;;26.20;20.65;;;20.30;37.20;;;;;;5139988;27;20498;-71
2022/03/25 11:09:20;;;;;;;25.83;20.00;;;20.30;37.30;;;;;;5141464;27;20057;-71
2022/03/25 11:11:47;;;;;;;27.70;19.15;;;20.20;37.20;;;;;;5155619;27;20034;-71
2022/03/25 11:14:14;;;;;;;23.52;19.17;;;20.20;37.30;;;;;;5143624;27;20047;-71
2022/03/25 11:16:45;;;;;;;24.35;19.02;;;20.20;37.30;;;;;;5134602;27;20047;-66
2022/03/25 11:19:17;;;;;;;27.48;20.50;;;20.20;37.30;;;;;;5137380;27;20047;-66
2022/03/25 11:21:45;;;;;;;24.58;19.42;;;20.20;37.30;;;;;;5143064;27;20039;-65
2022/03/25 11:24:33;;;;;;;26.63;18.40;;;20.20;37.30;;;;;;5138110;27;20066;-71
2022/03/25 11:27:05;;;;;;;22.08;16.92;;;20.10;37.20;;;;;;5137693;27;20043;-71
2022/03/25 11:29:35;;;;;;;19.85;16.25;;;20.10;37.40;;;;;;5142380;27;20038;-66
2022/03/25 11:37:40;;;;;;;23.63;16.15;;;20.10;37.50;;;;;;5105030;27;20366;-67
2022/03/25 11:42:55;;;;;;;22.50;17.50;;;20.10;37.80;;;;;;5119449;27;1161927;-72
2022/03/25 11:50:41;;;;;;;18.02;13.30;;;20.10;37.70;;;;;;5120059;27;1158152;-72
2022/03/25 11:56:07;;;;;;;14.02;11.80;;;20.10;37.70;;;;;;5112975;27;1168732;-71
2022/03/25 11:58:37;;;;;;;14.77;11.73;;;20.10;37.70;;;;;;5118312;27;20061;-70
2022/03/25 12:01:06;;;;;;;13.02;11.13;;;20.10;37.70;;;;;;5145851;27;20057;-72
2022/03/25 12:03:53;;;;;;;15.25;11.13;;;20.10;37.70;;;;;;5145760;27;20486;-70
2022/03/25 12:09:02;;;;;;;16.85;11.25;;;20.10;37.90;;;;;;5125664;27;1158276;-66
2022/03/25 12:11:49;;;;;;;15.05;9.95;;;20.10;38.00;;;;;;5132190;27;20047;-66
2022/03/25 12:14:17;;;;;;;14.93;10.30;;;20.10;38.80;;;;;;5133568;27;20722;-71
2022/03/25 12:25:17;;;;;;;16.13;10.43;;;20.10;38.00;;;;;;5108971;27;20342;-72
2022/03/25 12:27:43;;;;;;;14.20;9.40;;;20.10;38.90;;;;;;5109272;28;20051;-76
2022/03/25 12:30:11;;;;;;;15.32;9.50;;;20.20;38.90;;;;;;5108947;28;20027;-71
2022/03/25 12:32:38;;;;;;;18.45;9.35;;;20.20;39.10;;;;;;5124401;27;20051;-70
2022/03/25 12:35:10;;;;;;;11.88;7.93;;;20.20;39.00;;;;;;5115924;28;20044;-64
2022/03/25 12:42:58;;;;;;;8.85;7.28;;;20.20;39.00;;;;;;5110339;27;20379;-72
2022/03/25 12:53:30;;;;;;;10.35;7.63;;;20.20;38.50;;;;;;5134255;27;1162098;-72
2022/03/25 12:56:01;;;;;;;8.02;6.93;;;20.20;38.50;;;;;;5144840;27;20162;-70
2022/03/25 12:58:27;;;;;;;10.15;6.30;;;20.20;38.50;;;;;;5145886;27;20042;-70
2022/03/25 13:00:55;;;;;;;10.00;6.53;;;20.20;38.50;;;;;;5149562;27;20034;-70
2022/03/25 13:03:23;;;;;;;7.90;5.93;;;20.20;38.40;;;;;;5148696;27;20046;-70
2022/03/25 13:05:49;;;;;;;9.30;6.68;;;20.30;38.40;;;;;;5164575;27;20060;-69
2022/03/25 13:08:15;;;;;;;9.57;6.03;;;20.20;38.30;;;;;;5146778;27;20512;-72
2022/03/25 13:10:42;;;;;;;8.20;6.32;;;20.30;38.30;;;;;;5128985;27;20034;-72
2022/03/25 13:13:10;;;;;;;10.88;6.10;;;20.20;38.20;;;;;;5143675;27;20034;-66
2022/03/25 13:15:46;;;;;;;6.20;5.07;;;20.20;38.20;;;;;;5136045;27;20023;-70
2022/03/25 13:18:17;;;;;;;8.57;5.32;;;20.20;38.30;;;;;;5156156;27;20045;-70
2022/03/25 13:20:45;;;;;;;10.98;5.95;;;20.30;38.30;;;;;;5138234;27;20062;-69
2022/03/25 13:28:32;;;;;;;5.55;4.88;;;20.30;38.30;;;;;;5144880;27;1160219;-70
2022/03/25 13:31:00;;;;;;;6.43;4.03;;;20.30;38.30;;;;;;5128539;27;20103;-72
2022/03/25 13:33:28;;;;;;;7.47;4.80;;;20.20;38.20;;;;;;5128519;27;20050;-72
2022/03/25 13:36:00;;;;;;;5.38;4.15;;;20.30;38.20;;;;;;5126876;27;20047;-70
2022/03/25 13:38:46;;;;;;;6.93;4.20;;;20.20;38.20;;;;;;5124601;27;20039;-70
2022/03/25 13:41:17;;;;;;;4.15;3.72;;;20.30;38.20;;;;;;5132047;27;20043;-69
2022/03/25 13:43:47;;;;;;;4.72;3.67;;;20.30;38.30;;;;;;5124058;27;20043;-69
2022/03/25 13:46:29;;;;;;;6.40;3.65;;;20.30;38.30;;;;;;5127237;27;20046;-70
2022/03/25 13:51:37;;;;;;;5.85;3.90;;;20.30;38.20;;;;;;5132277;27;1161390;-69